To NAV CANADA Home Page Login to a new session Search on AWWS site Feedback and Comments Disclaimer Vers la page française équivalente Tips FAQ What's new on the site To the Forecasts and Observations / NOTAM section To "File a Flight Plan" website Publications and other links Update of the User's profile FIC Telephone Numbers My Weather Data Folder Route Weather Data Regional Weather Data Local Weather Data To the Forecasts and Observations / NOTAM section
Request Generated 10/18/2017 at 03:50:32 UTC . Weather information available at that time is displayed.

METAR/TAF

GREENWOOD/NS    

METAR CYZX 180300Z 00000KT 15SM SKC 02/00 A3018 RMK WNDY HILL UNAVBL SLP221=
METAR CYZX 180200Z 27002KT 15SM SKC 02/02 A3019 RMK WNDY HILL UNAVBL SLP224=
METAR CYZX 180100Z 00000KT 15SM SKC 04/02 A3018 RMK WNDY HILL UNAVBL SLP220=

TAF CYZX 172329Z 1800/1824 24005KT P6SM FEW030
FM180800 22005KT P6SM FEW030 BKN050
BECMG 1813/1815 26015G25KT SCT030
BECMG 1821/1823 27006KT
RMK NXT FCST BY 180600Z=
Your time UTC time
Weather data provided by Environment Canada and NAV CANADA